Terminal Aerodrome Forecast
Issued by NWS

Home | Current Version | Previous Version | Graphics & Text | Print | Product List | Glossary On
Versions: 1 2 3 4 5 6 7 8 9 10 11 12 13
000
FTUS43 KIWX 210521
TAFSBN
TAF
KSBN 210521Z 2106/2206 29011KT P6SM OVC035
     FM210900 31012KT P6SM BKN030
     FM211500 32012KT P6SM BKN020
     FM211900 33013KT P6SM BKN035
     FM220100 02005KT P6SM SCT150=

USA.gov is the U.S. government's official web portal to all federal, state and local government web resources and services.